Time;durP1;ratioP1;P1;durP2;ratioP2;P2;SDS_P1;SDS_P2;PMS_P1;PMS_P2;Temp;Humidity;BMP_temperature;BMP_pressure;BME280_temperature;BME280_humidity;BME280_pressure;Samples;Min_cycle;Max_cycle;Signal;HPM_P1;HPM_P2
2023/09/11 00:01:09;;;;;;;7.18;3.50;;;;;;;;;;5044233;28;20033;-76
2023/09/11 00:03:54;;;;;;;4.03;3.22;;;;;;;;;;5052326;28;20041;-75
2023/09/11 00:06:39;;;;;;;8.80;3.55;;;;;;;;;;5052226;28;20037;-75
2023/09/11 00:09:25;;;;;;;4.65;3.42;;;;;;;;;;5037320;28;20040;-74
2023/09/11 00:12:10;;;;;;;6.07;3.28;;;;;;;;;;5052329;28;20041;-74
2023/09/11 00:14:56;;;;;;;6.55;3.50;;;;;;;;;;5051947;28;20050;-73
2023/09/11 00:17:42;;;;;;;5.72;3.55;;;;;;;;;;5052090;28;20045;-75
2023/09/11 00:20:27;;;;;;;7.63;3.63;;;;;;;;;;5058560;28;20390;-74
2023/09/11 00:23:13;;;;;;;4.72;3.58;;;;;;;;;;5051722;28;20045;-75
2023/09/11 00:26:01;;;;;;;6.30;3.15;;;;;;;;;;5052234;28;20049;-74
2023/09/11 00:28:47;;;;;;;4.10;3.20;;;;;;;;;;5051944;28;20049;-75
2023/09/11 00:31:32;;;;;;;8.50;3.35;;;;;;;;;;5051646;28;20486;-75
2023/09/11 00:34:19;;;;;;;6.70;3.58;;;;;;;;;;5022768;28;20040;-75
2023/09/11 00:37:08;;;;;;;5.85;3.53;;;;;;;;;;5043481;28;20052;-75
2023/09/11 00:39:54;;;;;;;11.20;3.90;;;;;;;;;;5051780;28;20045;-74
2023/09/11 00:42:39;;;;;;;5.57;3.65;;;;;;;;;;5051797;28;20451;-75
2023/09/11 00:45:24;;;;;;;8.95;3.53;;;;;;;;;;5043091;28;20049;-75
2023/09/11 00:48:11;;;;;;;4.97;3.63;;;;;;;;;;5051351;28;20041;-74
2023/09/11 00:50:56;;;;;;;6.28;3.42;;;;;;;;;;5057791;28;20482;-74
2023/09/11 00:53:41;;;;;;;5.47;3.63;;;;;;;;;;5051110;28;20045;-74
2023/09/11 00:56:27;;;;;;;8.73;3.80;;;;;;;;;;5051248;28;20344;-74
2023/09/11 00:59:13;;;;;;;7.30;3.80;;;;;;;;;;5051135;28;20040;-74
2023/09/11 01:02:00;;;;;;;7.15;3.65;;;;;;;;;;5042869;28;20057;-74
2023/09/11 01:04:46;;;;;;;7.38;3.90;;;;;;;;;;5051294;28;20053;-74
2023/09/11 01:07:31;;;;;;;5.03;3.63;;;;;;;;;;5028816;28;20049;-74
2023/09/11 01:10:17;;;;;;;6.60;3.92;;;;;;;;;;5051102;28;20052;-73
2023/09/11 01:13:04;;;;;;;6.63;3.38;;;;;;;;;;5050839;28;20040;-73
2023/09/11 01:15:58;;;;;;;7.45;3.80;;;;;;;;;;5050854;28;20045;-74
2023/09/11 01:18:52;;;;;;;5.05;3.67;;;;;;;;;;5042744;28;20045;-73
2023/09/11 01:21:58;;;;;;;5.60;4.05;;;;;;;;;;5057889;28;20431;-74
2023/09/11 01:25:05;;;;;;;7.03;3.92;;;;;;;;;;5036053;28;20048;-74
2023/09/11 01:28:15;;;;;;;6.00;4.00;;;;;;;;;;5057524;28;20487;-75
2023/09/11 01:31:01;;;;;;;6.90;4.20;;;;;;;;;;5051394;28;20057;-74
2023/09/11 01:33:59;;;;;;;9.20;3.88;;;;;;;;;;5050839;28;20490;-74
2023/09/11 01:36:44;;;;;;;5.78;3.45;;;;;;;;;;5042831;28;20045;-72
2023/09/11 01:39:29;;;;;;;6.32;3.90;;;;;;;;;;5051143;28;20045;-74
2023/09/11 01:42:18;;;;;;;6.90;3.97;;;;;;;;;;5042521;28;20060;-73
2023/09/11 01:45:05;;;;;;;9.15;4.28;;;;;;;;;;5052172;28;20041;-73
2023/09/11 01:47:53;;;;;;;8.05;3.92;;;;;;;;;;5046046;28;20318;-72
2023/09/11 01:50:41;;;;;;;6.00;4.35;;;;;;;;;;5046323;28;20033;-73
2023/09/11 01:53:27;;;;;;;5.18;4.00;;;;;;;;;;5054647;28;20040;-74
2023/09/11 01:56:13;;;;;;;11.05;4.03;;;;;;;;;;5054519;28;20045;-73
2023/09/11 01:58:58;;;;;;;6.07;4.13;;;;;;;;;;5046188;28;20396;-75
2023/09/11 02:01:44;;;;;;;9.13;4.32;;;;;;;;;;5045960;28;20045;-75
2023/09/11 02:04:30;;;;;;;6.50;4.15;;;;;;;;;;5046255;28;20572;-74
2023/09/11 02:07:15;;;;;;;8.35;4.38;;;;;;;;;;5054155;28;20041;-72
2023/09/11 02:10:01;;;;;;;5.95;3.97;;;;;;;;;;5060916;28;20037;-74
2023/09/11 02:12:47;;;;;;;9.45;3.85;;;;;;;;;;5053982;28;20049;-74
2023/09/11 02:15:32;;;;;;;5.45;3.72;;;;;;;;;;5045501;28;20041;-73
2023/09/11 02:18:18;;;;;;;7.72;3.85;;;;;;;;;;5060859;28;20048;-74
2023/09/11 02:21:03;;;;;;;5.40;3.75;;;;;;;;;;5045884;28;20044;-73
2023/09/11 02:23:48;;;;;;;7.72;4.00;;;;;;;;;;5045302;28;20037;-73
2023/09/11 02:26:33;;;;;;;5.90;3.60;;;;;;;;;;5053970;28;20482;-75
2023/09/11 02:29:19;;;;;;;7.15;4.25;;;;;;;;;;5053950;28;20045;-74
2023/09/11 02:32:05;;;;;;;5.82;3.83;;;;;;;;;;5053886;28;20052;-74
2023/09/11 02:34:50;;;;;;;8.82;4.10;;;;;;;;;;5045318;28;20049;-75
2023/09/11 02:37:35;;;;;;;7.13;4.28;;;;;;;;;;5045437;28;20041;-74
2023/09/11 02:40:20;;;;;;;11.32;4.18;;;;;;;;;;5060220;28;20049;-73
2023/09/11 02:43:06;;;;;;;8.25;4.00;;;;;;;;;;5053808;28;20478;-74
2023/09/11 02:45:51;;;;;;;5.50;4.00;;;;;;;;;;5045140;28;20049;-74
2023/09/11 02:48:45;;;;;;;7.03;4.30;;;;;;;;;;5045317;28;20053;-74
2023/09/11 02:51:30;;;;;;;6.25;4.20;;;;;;;;;;5038434;28;20053;-74
2023/09/11 02:54:16;;;;;;;7.15;3.90;;;;;;;;;;5045136;28;20045;-73
2023/09/11 02:57:01;;;;;;;6.10;3.53;;;;;;;;;;5043983;28;20045;-74
2023/09/11 02:59:46;;;;;;;8.93;4.13;;;;;;;;;;5053161;28;20040;-75
2023/09/11 03:02:32;;;;;;;5.72;3.92;;;;;;;;;;5053273;28;20053;-75
2023/09/11 03:05:17;;;;;;;7.15;3.80;;;;;;;;;;5044776;28;20045;-74
2023/09/11 03:08:04;;;;;;;7.30;4.00;;;;;;;;;;5059988;28;20044;-73
2023/09/11 03:10:50;;;;;;;10.55;4.13;;;;;;;;;;5044625;28;20033;-73
2023/09/11 03:13:36;;;;;;;6.85;4.00;;;;;;;;;;5041223;28;20040;-74
2023/09/11 03:16:22;;;;;;;8.35;3.83;;;;;;;;;;5044246;28;20041;-74
2023/09/11 03:19:13;;;;;;;8.93;4.10;;;;;;;;;;5044418;28;20390;-75
2023/09/11 03:21:59;;;;;;;7.45;4.00;;;;;;;;;;5052897;28;20049;-74
2023/09/11 03:24:44;;;;;;;5.15;3.58;;;;;;;;;;5052799;28;20040;-74
2023/09/11 03:27:30;;;;;;;9.40;4.35;;;;;;;;;;5044364;28;20045;-74
2023/09/11 03:30:15;;;;;;;9.60;4.22;;;;;;;;;;5044571;28;20052;-73
2023/09/11 03:33:02;;;;;;;7.18;3.85;;;;;;;;;;5044223;28;20520;-73
2023/09/11 03:35:47;;;;;;;9.68;4.38;;;;;;;;;;5058785;28;20401;-74
2023/09/11 03:38:32;;;;;;;7.28;4.15;;;;;;;;;;5052563;28;20041;-73
2023/09/11 03:41:18;;;;;;;6.22;4.00;;;;;;;;;;5058139;28;20486;-74
2023/09/11 03:44:04;;;;;;;9.27;4.15;;;;;;;;;;5044261;28;20048;-74
2023/09/11 03:46:50;;;;;;;6.97;4.00;;;;;;;;;;5043845;28;20041;-73
2023/09/11 03:49:38;;;;;;;5.75;4.00;;;;;;;;;;5052126;28;20045;-74
2023/09/11 03:52:23;;;;;;;7.35;3.78;;;;;;;;;;5043301;28;20048;-74
2023/09/11 03:55:09;;;;;;;6.38;4.25;;;;;;;;;;5043707;28;20049;-74
2023/09/11 03:57:55;;;;;;;5.13;3.72;;;;;;;;;;5044031;28;20048;-74
2023/09/11 04:00:41;;;;;;;10.48;4.55;;;;;;;;;;5052204;28;20053;-74
2023/09/11 04:03:27;;;;;;;6.43;4.40;;;;;;;;;;5051712;28;20053;-73
2023/09/11 04:06:12;;;;;;;8.63;4.38;;;;;;;;;;5052142;28;20045;-74
2023/09/11 04:08:58;;;;;;;5.88;4.28;;;;;;;;;;5051841;28;20052;-75
2023/09/11 04:11:43;;;;;;;11.07;4.43;;;;;;;;;;5052148;28;20045;-73
2023/09/11 04:14:29;;;;;;;5.63;4.22;;;;;;;;;;5051628;28;20049;-73
2023/09/11 04:17:15;;;;;;;7.75;3.95;;;;;;;;;;5051777;28;20041;-74
2023/09/11 04:20:00;;;;;;;6.97;3.97;;;;;;;;;;5052011;28;20479;-76
2023/09/11 04:22:46;;;;;;;11.80;4.43;;;;;;;;;;5043382;28;20048;-73
2023/09/11 04:25:33;;;;;;;7.43;4.13;;;;;;;;;;5051976;28;20044;-73
2023/09/11 04:28:19;;;;;;;7.47;4.38;;;;;;;;;;5043658;28;20041;-74
2023/09/11 04:31:04;;;;;;;6.45;4.13;;;;;;;;;;5043309;28;20040;-73
2023/09/11 04:33:50;;;;;;;6.72;4.32;;;;;;;;;;5051915;28;20049;-73
2023/09/11 04:36:35;;;;;;;7.90;4.75;;;;;;;;;;5042915;28;20041;-73
2023/09/11 04:39:23;;;;;;;8.32;4.60;;;;;;;;;;5051485;28;20398;-73
2023/09/11 04:42:09;;;;;;;11.23;4.47;;;;;;;;;;5042984;28;20033;-72
2023/09/11 04:44:58;;;;;;;12.20;4.68;;;;;;;;;;5043050;28;20049;-73
2023/09/11 04:47:44;;;;;;;9.93;4.38;;;;;;;;;;5042983;28;20037;-74
2023/09/11 04:50:29;;;;;;;7.88;4.15;;;;;;;;;;5042818;28;20033;-74
2023/09/11 04:53:15;;;;;;;18.92;4.30;;;;;;;;;;5042910;28;20049;-73
2023/09/11 04:56:01;;;;;;;9.07;3.90;;;;;;;;;;5042744;28;20048;-74
2023/09/11 04:58:46;;;;;;;13.75;5.35;;;;;;;;;;5051367;28;20045;-73
2023/09/11 05:01:33;;;;;;;8.95;4.45;;;;;;;;;;5057961;28;20041;-74
2023/09/11 05:04:19;;;;;;;9.13;4.05;;;;;;;;;;5051094;28;20048;-74
2023/09/11 05:07:04;;;;;;;11.60;4.78;;;;;;;;;;5042856;28;20045;-74
2023/09/11 05:09:49;;;;;;;7.45;4.28;;;;;;;;;;5042779;28;20478;-74
2023/09/11 05:12:35;;;;;;;10.05;4.07;;;;;;;;;;5041635;28;20491;-73
2023/09/11 05:15:21;;;;;;;12.70;3.92;;;;;;;;;;5042299;28;20090;-74
2023/09/11 05:18:06;;;;;;;11.75;4.05;;;;;;;;;;5056790;28;20395;-73
2023/09/11 05:20:52;;;;;;;8.10;3.88;;;;;;;;;;5045148;28;20398;-74
2023/09/11 05:23:42;;;;;;;14.70;4.50;;;;;;;;;;5046449;28;20044;-74
2023/09/11 05:26:29;;;;;;;11.85;4.38;;;;;;;;;;5054996;28;20041;-74
2023/09/11 05:29:14;;;;;;;8.20;4.40;;;;;;;;;;5054634;28;20053;-75
2023/09/11 05:31:59;;;;;;;7.93;4.22;;;;;;;;;;5054781;28;20478;-73
2023/09/11 05:34:45;;;;;;;11.27;4.13;;;;;;;;;;5046450;28;20045;-74
2023/09/11 05:37:30;;;;;;;12.70;4.32;;;;;;;;;;5061458;28;20033;-74
2023/09/11 05:40:16;;;;;;;10.38;3.83;;;;;;;;;;5061525;28;20057;-74
2023/09/11 05:43:03;;;;;;;8.50;4.00;;;;;;;;;;5054848;28;20040;-74
2023/09/11 05:45:48;;;;;;;8.23;3.85;;;;;;;;;;5060667;28;20045;-74
2023/09/11 05:48:34;;;;;;;8.95;4.20;;;;;;;;;;5061447;28;20049;-74
2023/09/11 05:51:19;;;;;;;10.07;4.25;;;;;;;;;;5054529;28;20045;-74
2023/09/11 05:54:05;;;;;;;15.40;4.97;;;;;;;;;;5054289;28;20045;-74
2023/09/11 05:56:51;;;;;;;13.15;5.70;;;;;;;;;;5053592;28;20052;-74
2023/09/11 05:59:37;;;;;;;17.23;6.00;;;;;;;;;;5054587;28;20048;-74
2023/09/11 06:02:21;;;;;;;13.02;5.57;;;;;;;;;;5054576;28;20482;-73
2023/09/11 06:05:08;;;;;;;15.02;5.32;;;;;;;;;;5055359;28;20044;-73
2023/09/11 06:07:53;;;;;;;8.73;4.95;;;;;;;;;;5054455;28;20402;-75
2023/09/11 06:10:39;;;;;;;14.88;4.80;;;;;;;;;;5054322;28;20049;-75
2023/09/11 06:13:26;;;;;;;16.40;4.97;;;;;;;;;;5039766;28;20045;-74
2023/09/11 06:16:12;;;;;;;11.57;5.20;;;;;;;;;;5061955;28;20049;-74
2023/09/11 06:18:58;;;;;;;10.30;5.22;;;;;;;;;;5055225;28;20041;-74
2023/09/11 06:21:46;;;;;;;10.50;4.70;;;;;;;;;;5055322;28;20482;-74
2023/09/11 06:24:32;;;;;;;10.93;4.63;;;;;;;;;;5061964;28;20041;-75
2023/09/11 06:27:18;;;;;;;12.85;4.78;;;;;;;;;;5055211;28;20052;-74
2023/09/11 06:30:06;;;;;;;13.35;5.28;;;;;;;;;;5053727;28;20041;-74
2023/09/11 06:32:51;;;;;;;9.05;4.95;;;;;;;;;;5053879;28;20037;-74
2023/09/11 06:35:37;;;;;;;15.65;5.45;;;;;;;;;;5053624;28;20498;-73
2023/09/11 06:38:22;;;;;;;11.27;5.38;;;;;;;;;;5038828;28;20048;-73
2023/09/11 06:41:14;;;;;;;10.43;5.03;;;;;;;;;;5054137;28;20049;-75
2023/09/11 06:44:02;;;;;;;8.80;5.10;;;;;;;;;;5053874;28;20041;-75
2023/09/11 06:46:47;;;;;;;9.52;4.80;;;;;;;;;;5053688;28;20048;-75
2023/09/11 06:49:33;;;;;;;12.32;4.95;;;;;;;;;;5060507;28;20431;-76
2023/09/11 06:52:20;;;;;;;8.30;4.60;;;;;;;;;;5053823;28;20390;-78
2023/09/11 06:55:09;;;;;;;11.00;4.60;;;;;;;;;;5060405;28;20041;-76
2023/09/11 06:57:58;;;;;;;8.60;3.63;;;;;;;;;;5053429;28;20045;-77
2023/09/11 07:00:44;;;;;;;9.35;4.00;;;;;;;;;;5053629;28;20045;-75
2023/09/11 07:03:30;;;;;;;6.32;3.60;;;;;;;;;;5053518;28;20049;-78
2023/09/11 07:06:15;;;;;;;8.98;3.80;;;;;;;;;;5053400;28;20398;-77
2023/09/11 07:09:03;;;;;;;7.20;3.95;;;;;;;;;;5053991;28;20041;-75
2023/09/11 07:11:50;;;;;;;8.30;4.10;;;;;;;;;;5052496;28;20410;-75
2023/09/11 07:14:35;;;;;;;10.35;4.45;;;;;;;;;;5052541;28;20057;-76
2023/09/11 07:17:21;;;;;;;10.07;4.25;;;;;;;;;;5053221;28;20041;-75
2023/09/11 07:20:09;;;;;;;10.20;4.93;;;;;;;;;;5052943;28;20044;-76
2023/09/11 07:22:53;;;;;;;11.10;3.78;;;;;;;;;;5058714;28;20049;-76
2023/09/11 07:25:39;;;;;;;6.53;4.22;;;;;;;;;;5052869;28;20041;-76
2023/09/11 07:28:26;;;;;;;11.40;6.35;;;;;;;;;;5053085;28;20422;-76
2023/09/11 07:31:11;;;;;;;11.82;4.00;;;;;;;;;;5053014;28;20045;-76
2023/09/11 07:33:57;;;;;;;12.18;4.20;;;;;;;;;;5059712;28;20049;-77
2023/09/11 07:36:43;;;;;;;10.38;3.80;;;;;;;;;;5052698;28;20037;-77
2023/09/11 07:39:28;;;;;;;12.93;4.00;;;;;;;;;;5059550;28;20045;-77
2023/09/11 07:42:14;;;;;;;6.85;3.70;;;;;;;;;;5052219;28;20045;-75
2023/09/11 07:44:59;;;;;;;10.45;4.13;;;;;;;;;;5059227;28;20033;-76
2023/09/11 07:47:44;;;;;;;11.73;3.70;;;;;;;;;;5052783;28;20044;-76
2023/09/11 07:50:29;;;;;;;6.93;4.10;;;;;;;;;;5052520;28;20033;-76
2023/09/11 07:53:15;;;;;;;5.88;3.85;;;;;;;;;;5052613;28;20053;-74
2023/09/11 07:56:07;;;;;;;8.07;4.45;;;;;;;;;;5052159;28;20049;-76
2023/09/11 07:58:54;;;;;;;8.07;3.97;;;;;;;;;;5052357;28;20413;-74
2023/09/11 08:01:39;;;;;;;9.05;3.92;;;;;;;;;;5052543;28;20045;-77
2023/09/11 08:04:25;;;;;;;7.18;3.78;;;;;;;;;;5052574;28;20398;-77
2023/09/11 08:07:11;;;;;;;7.72;3.72;;;;;;;;;;5058910;28;20048;-76
2023/09/11 08:09:58;;;;;;;9.27;4.03;;;;;;;;;;5052102;28;20033;-76
2023/09/11 08:12:43;;;;;;;10.48;4.05;;;;;;;;;;5051690;28;20041;-76
2023/09/11 08:15:29;;;;;;;8.05;3.80;;;;;;;;;;5051727;28;20421;-76
2023/09/11 08:18:15;;;;;;;6.85;4.05;;;;;;;;;;5052055;28;20630;-75
2023/09/11 08:21:01;;;;;;;10.20;4.20;;;;;;;;;;5058736;28;20499;-76
2023/09/11 08:23:46;;;;;;;9.80;4.05;;;;;;;;;;5043643;28;20394;-74
2023/09/11 08:26:31;;;;;;;5.85;3.80;;;;;;;;;;5051985;28;20041;-77
2023/09/11 08:29:18;;;;;;;8.85;4.00;;;;;;;;;;5051730;28;20049;-76
2023/09/11 08:32:04;;;;;;;10.20;3.63;;;;;;;;;;5051675;28;20045;-77
2023/09/11 08:34:50;;;;;;;14.05;3.97;;;;;;;;;;5058260;28;20048;-77
2023/09/11 08:37:35;;;;;;;9.73;4.07;;;;;;;;;;5058400;28;20049;-76
2023/09/11 08:40:28;;;;;;;9.25;3.45;;;;;;;;;;5051754;28;20057;-76
2023/09/11 08:43:13;;;;;;;8.98;3.97;;;;;;;;;;5051476;28;20049;-75
2023/09/11 08:46:00;;;;;;;8.73;4.00;;;;;;;;;;5051766;28;20045;-75
2023/09/11 08:48:48;;;;;;;8.57;4.60;;;;;;;;;;5059618;28;20040;-76
2023/09/11 08:51:38;;;;;;;14.07;5.32;;;;;;;;;;5052852;28;20041;-75
2023/09/11 08:54:30;;;;;;;13.15;3.63;;;;;;;;;;5057644;28;20045;-75
2023/09/11 08:57:16;;;;;;;11.50;4.07;;;;;;;;;;5051946;28;20041;-77
2023/09/11 09:00:08;;;;;;;9.68;3.88;;;;;;;;;;5052208;28;20049;-75
2023/09/11 09:02:54;;;;;;;7.00;3.67;;;;;;;;;;5052238;28;20053;-74
2023/09/11 09:05:40;;;;;;;9.35;3.70;;;;;;;;;;5051200;28;20482;-76
2023/09/11 09:08:26;;;;;;;6.95;3.63;;;;;;;;;;5051399;28;20045;-76
2023/09/11 09:11:11;;;;;;;10.60;3.80;;;;;;;;;;5051483;28;20052;-77
2023/09/11 09:13:58;;;;;;;9.55;3.70;;;;;;;;;;5050783;28;20049;-76
2023/09/11 09:16:45;;;;;;;10.10;3.50;;;;;;;;;;5051326;28;20037;-76
2023/09/11 09:19:33;;;;;;;13.70;3.40;;;;;;;;;;5051774;28;20040;-76
2023/09/11 09:22:19;;;;;;;8.50;3.75;;;;;;;;;;5042838;28;20045;-76
2023/09/11 09:25:04;;;;;;;12.73;3.50;;;;;;;;;;5057620;28;20049;-76
2023/09/11 09:27:51;;;;;;;18.10;4.57;;;;;;;;;;5050991;28;20045;-76
2023/09/11 09:30:37;;;;;;;11.27;3.78;;;;;;;;;;5036122;28;20049;-76
2023/09/11 09:33:24;;;;;;;15.55;3.72;;;;;;;;;;5050984;28;20378;-76
2023/09/11 09:36:15;;;;;;;8.98;3.85;;;;;;;;;;5057562;28;20049;-77
2023/09/11 09:39:00;;;;;;;7.30;3.88;;;;;;;;;;5051246;28;20037;-76
2023/09/11 09:42:07;;;;;;;8.85;3.70;;;;;;;;;;5042818;28;20049;-76
2023/09/11 09:44:53;;;;;;;8.00;3.25;;;;;;;;;;5050914;28;20044;-76
2023/09/11 09:47:38;;;;;;;7.60;3.15;;;;;;;;;;5050718;28;20394;-75
2023/09/11 09:50:23;;;;;;;11.18;3.60;;;;;;;;;;5051042;28;20041;-74
2023/09/11 09:53:23;;;;;;;10.63;3.60;;;;;;;;;;5050864;28;20044;-75
2023/09/11 09:56:11;;;;;;;7.68;2.88;;;;;;;;;;5050824;28;20041;-75
2023/09/11 09:58:56;;;;;;;9.65;2.90;;;;;;;;;;5050892;28;20045;-74
2023/09/11 10:01:46;;;;;;;10.27;3.50;;;;;;;;;;5050511;28;20045;-76
2023/09/11 10:04:31;;;;;;;9.80;3.58;;;;;;;;;;5050514;28;20045;-74
2023/09/11 10:07:35;;;;;;;9.27;3.75;;;;;;;;;;5045144;28;20049;-76
2023/09/11 10:10:26;;;;;;;14.73;3.10;;;;;;;;;;5054176;28;20044;-76
2023/09/11 10:13:13;;;;;;;8.30;3.30;;;;;;;;;;5053896;28;20045;-75
2023/09/11 10:16:00;;;;;;;8.00;3.15;;;;;;;;;;5060533;28;20049;-76
2023/09/11 10:18:48;;;;;;;6.47;2.95;;;;;;;;;;5054099;28;20398;-75
2023/09/11 10:21:34;;;;;;;11.15;3.22;;;;;;;;;;5054146;28;20045;-75
2023/09/11 10:24:19;;;;;;;9.02;3.15;;;;;;;;;;5060699;28;20037;-76
2023/09/11 10:27:06;;;;;;;13.13;3.30;;;;;;;;;;5054089;28;20049;-75
2023/09/11 10:30:06;;;;;;;11.05;3.15;;;;;;;;;;5053645;28;20049;-75
2023/09/11 10:32:59;;;;;;;15.77;3.10;;;;;;;;;;5060389;28;20045;-75
2023/09/11 10:35:46;;;;;;;6.75;2.83;;;;;;;;;;5053781;28;20040;-74
2023/09/11 10:38:33;;;;;;;6.05;2.80;;;;;;;;;;5038626;28;20045;-74
2023/09/11 10:41:18;;;;;;;10.02;3.03;;;;;;;;;;5045148;28;20041;-74
2023/09/11 10:44:04;;;;;;;4.55;3.08;;;;;;;;;;5053610;28;20049;-74
2023/09/11 10:46:52;;;;;;;5.75;2.90;;;;;;;;;;5053434;28;20494;-74
2023/09/11 10:49:37;;;;;;;10.93;3.13;;;;;;;;;;5060426;28;20424;-74
2023/09/11 10:52:24;;;;;;;9.73;2.88;;;;;;;;;;5060172;28;20040;-74
2023/09/11 10:55:10;;;;;;;9.25;2.83;;;;;;;;;;5053618;28;20331;-74
2023/09/11 10:57:59;;;;;;;8.82;3.00;;;;;;;;;;5052763;28;20049;-75
2023/09/11 11:00:44;;;;;;;10.52;3.42;;;;;;;;;;5052575;28;20045;-75
2023/09/11 11:03:31;;;;;;;8.43;3.08;;;;;;;;;;5052978;28;20052;-75
2023/09/11 11:06:17;;;;;;;8.70;3.30;;;;;;;;;;5038213;28;20056;-75
2023/09/11 11:09:28;;;;;;;11.45;2.85;;;;;;;;;;5053110;28;20045;-75
2023/09/11 11:12:15;;;;;;;11.10;2.92;;;;;;;;;;5052501;28;20053;-75
2023/09/11 11:15:19;;;;;;;10.90;3.20;;;;;;;;;;5053015;28;20060;-76
2023/09/11 11:18:13;;;;;;;4.68;2.92;;;;;;;;;;5052286;28;20037;-74
2023/09/11 11:21:08;;;;;;;6.18;3.20;;;;;;;;;;5051271;28;20041;-74
2023/09/11 11:24:00;;;;;;;7.13;3.92;;;;;;;;;;5052243;28;20045;-75
2023/09/11 11:26:45;;;;;;;11.80;3.38;;;;;;;;;;5052487;28;20045;-75
2023/09/11 11:29:31;;;;;;;7.32;3.33;;;;;;;;;;5052833;28;20049;-75
2023/09/11 11:32:26;;;;;;;8.98;2.90;;;;;;;;;;5052762;28;20045;-74
2023/09/11 11:35:13;;;;;;;;;;;;;;;;;;5052564;28;20041;-75
2023/09/11 11:37:58;;;;;;;8.75;3.17;;;;;;;;;;5044192;28;19932;-76
2023/09/11 11:40:45;;;;;;;6.82;3.28;;;;;;;;;;5059248;28;20040;-73
2023/09/11 11:43:31;;;;;;;8.38;3.53;;;;;;;;;;5059072;28;20041;-75
2023/09/11 11:46:16;;;;;;;7.38;3.00;;;;;;;;;;5044018;28;20057;-74
2023/09/11 11:49:02;;;;;;;10.10;3.50;;;;;;;;;;5052234;28;20048;-74
2023/09/11 11:51:50;;;;;;;10.85;3.22;;;;;;;;;;5052121;28;20046;-75
2023/09/11 11:54:35;;;;;;;10.82;3.38;;;;;;;;;;5051821;28;20044;-75
2023/09/11 11:57:21;;;;;;;9.23;3.00;;;;;;;;;;5051879;28;20045;-74
2023/09/11 12:00:10;;;;;;;6.38;2.78;;;;;;;;;;5058622;28;20049;-74
2023/09/11 12:03:03;;;;;;;5.00;2.40;;;;;;;;;;5051862;28;20041;-74
2023/09/11 12:05:48;;;;;;;6.07;3.00;;;;;;;;;;5051850;28;20049;-74
2023/09/11 12:08:34;;;;;;;8.75;3.05;;;;;;;;;;5052988;28;20041;-74
2023/09/11 12:11:19;;;;;;;11.50;3.63;;;;;;;;;;5051991;28;20482;-74
2023/09/11 12:14:06;;;;;;;8.05;2.80;;;;;;;;;;5053042;28;20049;-74
2023/09/11 12:16:52;;;;;;;9.77;2.90;;;;;;;;;;5058373;28;20112;-74
2023/09/11 12:19:38;;;;;;;12.85;2.70;;;;;;;;;;5058583;28;20048;-73
2023/09/11 12:22:24;;;;;;;9.63;3.22;;;;;;;;;;5052380;28;20045;-74
2023/09/11 12:25:11;;;;;;;8.48;3.00;;;;;;;;;;5052013;28;20044;-74
2023/09/11 12:27:56;;;;;;;12.38;2.80;;;;;;;;;;5052104;28;20482;-75
2023/09/11 12:30:44;;;;;;;8.23;2.63;;;;;;;;;;5043924;28;20049;-73
2023/09/11 12:33:33;;;;;;;9.00;2.55;;;;;;;;;;5051674;28;20041;-74
2023/09/11 12:36:22;;;;;;;6.20;2.63;;;;;;;;;;5051304;28;20052;-73
2023/09/11 12:39:08;;;;;;;8.80;3.05;;;;;;;;;;5051659;28;20048;-74
2023/09/11 12:41:53;;;;;;;8.95;2.97;;;;;;;;;;5051548;28;20045;-73
2023/09/11 12:44:38;;;;;;;10.88;2.97;;;;;;;;;;5050934;28;20057;-76
2023/09/11 12:47:24;;;;;;;11.60;3.05;;;;;;;;;;5050698;28;20049;-74
2023/09/11 12:50:10;;;;;;;7.65;4.05;;;;;;;;;;5049606;28;20044;-75
2023/09/11 12:53:00;;;;;;;6.97;2.70;;;;;;;;;;5051512;28;20056;-76
2023/09/11 12:55:48;;;;;;;7.95;2.97;;;;;;;;;;5051423;28;20053;-74
2023/09/11 12:58:40;;;;;;;9.52;3.10;;;;;;;;;;5051270;28;20049;-73
2023/09/11 13:01:32;;;;;;;7.80;2.50;;;;;;;;;;5052656;28;20037;-75
2023/09/11 13:04:20;;;;;;;8.25;2.53;;;;;;;;;;5050837;28;20394;-74
2023/09/11 13:07:07;;;;;;;6.78;3.17;;;;;;;;;;5051354;28;20037;-74
2023/09/11 13:09:52;;;;;;;7.65;2.63;;;;;;;;;;5051253;28;20040;-74
2023/09/11 13:12:38;;;;;;;5.82;2.60;;;;;;;;;;5051137;28;20045;-74
2023/09/11 13:15:24;;;;;;;8.60;2.90;;;;;;;;;;5058005;28;20429;-74
2023/09/11 13:18:09;;;;;;;13.18;2.60;;;;;;;;;;5042434;28;20037;-74
2023/09/11 13:20:55;;;;;;;14.18;2.83;;;;;;;;;;5051071;28;20045;-75
2023/09/11 13:23:41;;;;;;;9.45;2.70;;;;;;;;;;5028923;28;20041;-74
2023/09/11 13:26:27;;;;;;;10.52;2.50;;;;;;;;;;5042471;28;20040;-74
2023/09/11 13:29:13;;;;;;;10.27;2.65;;;;;;;;;;5050832;28;20041;-74
2023/09/11 13:31:58;;;;;;;9.63;2.67;;;;;;;;;;5050782;28;20041;-74
2023/09/11 13:34:44;;;;;;;10.63;2.63;;;;;;;;;;5036292;28;20467;-74
2023/09/11 13:37:29;;;;;;;16.38;2.97;;;;;;;;;;5036011;28;20037;-75
2023/09/11 13:40:15;;;;;;;16.65;3.05;;;;;;;;;;5051252;28;20057;-74
2023/09/11 13:43:01;;;;;;;6.70;2.30;;;;;;;;;;5054776;28;20482;-74
2023/09/11 13:45:47;;;;;;;15.32;3.05;;;;;;;;;;5054586;28;20045;-75
2023/09/11 13:48:33;;;;;;;8.73;2.80;;;;;;;;;;5061146;28;20049;-74
2023/09/11 13:51:18;;;;;;;8.70;2.90;;;;;;;;;;5054712;28;20053;-74
2023/09/11 13:54:03;;;;;;;8.15;2.90;;;;;;;;;;5038858;28;20045;-75
2023/09/11 13:56:49;;;;;;;4.43;2.45;;;;;;;;;;5046023;28;20041;-76
2023/09/11 13:59:34;;;;;;;7.63;2.92;;;;;;;;;;5054186;28;20045;-75
2023/09/11 14:02:20;;;;;;;7.70;2.72;;;;;;;;;;5054223;28;20044;-74
2023/09/11 14:05:06;;;;;;;11.57;2.97;;;;;;;;;;5054254;28;20049;-73
2023/09/11 14:07:51;;;;;;;12.48;3.35;;;;;;;;;;5054247;28;20044;-73
2023/09/11 14:10:36;;;;;;;11.25;3.17;;;;;;;;;;5054113;28;20052;-73
2023/09/11 14:13:35;;;;;;;11.55;2.70;;;;;;;;;;5053864;28;20041;-76
2023/09/11 14:16:20;;;;;;;14.30;2.63;;;;;;;;;;5061285;28;20041;-76
2023/09/11 14:19:08;;;;;;;9.57;2.60;;;;;;;;;;5054133;28;20045;-73
2023/09/11 14:21:53;;;;;;;13.25;3.25;;;;;;;;;;5053885;28;20049;-76
2023/09/11 14:24:40;;;;;;;8.35;3.03;;;;;;;;;;5053970;28;20045;-74
2023/09/11 14:27:25;;;;;;;11.88;2.85;;;;;;;;;;5060526;28;20048;-75
2023/09/11 14:30:11;;;;;;;9.55;3.38;;;;;;;;;;5053745;28;20049;-76
2023/09/11 14:32:56;;;;;;;10.88;3.17;;;;;;;;;;5054486;28;20057;-74
2023/09/11 14:35:41;;;;;;;9.25;3.20;;;;;;;;;;5037952;28;20041;-76
2023/09/11 14:38:26;;;;;;;10.30;3.13;;;;;;;;;;5059797;28;20052;-75
2023/09/11 14:41:12;;;;;;;9.80;2.90;;;;;;;;;;5045359;28;20044;-74
2023/09/11 14:43:58;;;;;;;8.90;3.65;;;;;;;;;;5053660;28;20045;-74
2023/09/11 14:46:43;;;;;;;9.95;3.65;;;;;;;;;;5053445;28;20414;-74
2023/09/11 14:49:28;;;;;;;12.88;3.50;;;;;;;;;;5052863;28;20071;-75
2023/09/11 14:52:14;;;;;;;13.57;5.03;;;;;;;;;;5058581;28;20041;-75
2023/09/11 14:55:00;;;;;;;9.32;3.00;;;;;;;;;;5057736;28;20041;-74
2023/09/11 14:57:45;;;;;;;10.85;2.85;;;;;;;;;;5051243;28;20053;-74
2023/09/11 15:00:31;;;;;;;14.00;3.67;;;;;;;;;;5051770;28;20049;-73
2023/09/11 15:03:16;;;;;;;10.82;2.97;;;;;;;;;;5051953;28;20041;-74
2023/09/11 15:06:02;;;;;;;5.95;2.88;;;;;;;;;;5054359;28;20057;-76
2023/09/11 15:08:48;;;;;;;9.43;2.63;;;;;;;;;;5062168;28;20033;-74
2023/09/11 15:11:33;;;;;;;5.60;2.72;;;;;;;;;;5055273;28;20037;-75
2023/09/11 15:14:19;;;;;;;11.00;3.45;;;;;;;;;;5055351;28;20044;-74
2023/09/11 15:17:05;;;;;;;11.57;3.00;;;;;;;;;;5055033;28;20049;-75
2023/09/11 15:19:51;;;;;;;10.52;2.90;;;;;;;;;;5055174;28;20045;-75
2023/09/11 15:22:36;;;;;;;7.25;3.13;;;;;;;;;;5055378;28;20041;-75
2023/09/11 15:25:22;;;;;;;11.00;3.85;;;;;;;;;;5061322;28;20053;-75
2023/09/11 15:28:08;;;;;;;14.27;5.18;;;;;;;;;;5061368;28;20045;-75
2023/09/11 15:30:55;;;;;;;12.13;3.83;;;;;;;;;;5061060;28;20048;-75
2023/09/11 15:33:40;;;;;;;6.03;3.00;;;;;;;;;;5054458;28;20091;-75
2023/09/11 15:36:26;;;;;;;8.38;3.70;;;;;;;;;;5045970;28;20446;-74
2023/09/11 15:39:11;;;;;;;13.75;3.90;;;;;;;;;;5045277;28;20045;-76
2023/09/11 15:41:57;;;;;;;28.55;16.27;;;;;;;;;;5053402;28;20041;-75
2023/09/11 15:44:43;;;;;;;53.28;29.70;;;;;;;;;;5052908;28;20045;-75
2023/09/11 15:47:28;;;;;;;22.27;12.45;;;;;;;;;;5053147;28;20049;-74
2023/09/11 15:50:13;;;;;;;17.73;5.82;;;;;;;;;;5038324;28;20041;-74
2023/09/11 15:52:58;;;;;;;9.77;4.30;;;;;;;;;;5053602;28;20044;-74
2023/09/11 15:55:44;;;;;;;12.32;3.80;;;;;;;;;;5060786;28;20037;-75
2023/09/11 15:58:29;;;;;;;13.13;3.38;;;;;;;;;;5045850;28;20048;-75
2023/09/11 16:01:15;;;;;;;11.65;3.45;;;;;;;;;;5054254;28;20053;-75
2023/09/11 16:04:01;;;;;;;10.48;3.00;;;;;;;;;;5053762;28;20053;-75
2023/09/11 16:06:47;;;;;;;9.95;3.47;;;;;;;;;;5053861;28;20049;-76
2023/09/11 16:09:32;;;;;;;13.15;3.53;;;;;;;;;;5054124;28;20053;-75
2023/09/11 16:12:18;;;;;;;10.63;3.45;;;;;;;;;;5054092;28;20048;-76
2023/09/11 16:15:04;;;;;;;11.60;3.67;;;;;;;;;;5060531;28;20048;-73
2023/09/11 16:17:49;;;;;;;14.43;3.67;;;;;;;;;;5060430;28;20045;-73
2023/09/11 16:20:36;;;;;;;21.63;3.72;;;;;;;;;;5053973;28;20049;-73
2023/09/11 16:23:21;;;;;;;8.57;3.15;;;;;;;;;;5053979;28;20498;-73
2023/09/11 16:26:07;;;;;;;10.70;4.03;;;;;;;;;;5052828;28;20437;-73
2023/09/11 16:28:53;;;;;;;18.85;5.47;;;;;;;;;;5053394;28;20057;-73
2023/09/11 16:31:40;;;;;;;17.88;5.38;;;;;;;;;;5053464;28;20049;-73
2023/09/11 16:34:25;;;;;;;10.60;3.90;;;;;;;;;;5060164;28;20045;-74